createdAt,value
2022-08-22T00:01:59.517Z,12.50
2022-08-22T00:03:01.015Z,17.80
2022-08-22T00:03:06.691Z,13.00
2022-08-22T00:03:10.896Z,16.50
2022-08-22T00:03:12.110Z,13.80
2022-08-22T00:03:15.129Z,13.00
2022-08-22T00:04:38.701Z,12.30
2022-08-22T00:07:12.643Z,12.70
2022-08-22T00:09:57.503Z,12.40
2022-08-22T00:12:35.677Z,12.40
2022-08-22T00:15:27.932Z,12.30
2022-08-22T00:18:10.244Z,12.30
2022-08-22T00:20:44.570Z,12.30
2022-08-22T00:23:18.468Z,12.30
2022-08-22T00:25:54.292Z,12.30
2022-08-22T00:28:26.384Z,12.20
2022-08-22T00:30:59.481Z,12.20
2022-08-22T00:33:37.733Z,12.40
2022-08-22T00:36:15.503Z,12.40
2022-08-22T00:38:48.591Z,12.30
2022-08-22T00:41:30.425Z,12.10
2022-08-22T00:44:15.661Z,12.10
2022-08-22T00:47:09.347Z,12.20
2022-08-22T00:49:58.655Z,12.10
2022-08-22T00:53:04.280Z,12.00
2022-08-22T00:55:45.259Z,12.00
2022-08-22T00:58:40.551Z,12.00
2022-08-22T01:01:11.484Z,11.90
2022-08-22T01:04:09.668Z,11.90
2022-08-22T01:06:48.718Z,12.00
2022-08-22T01:09:37.529Z,11.90
2022-08-22T01:12:30.934Z,12.00
2022-08-22T01:15:03.072Z,11.90
2022-08-22T01:17:54.622Z,11.90
2022-08-22T01:20:51.974Z,11.90
2022-08-22T01:24:24.207Z,11.80
2022-08-22T01:27:17.541Z,11.90
2022-08-22T01:30:14.438Z,11.90
2022-08-22T01:33:16.055Z,11.80
2022-08-22T01:36:16.533Z,11.80
2022-08-22T01:39:02.623Z,11.80
2022-08-22T01:42:11.574Z,11.80
2022-08-22T01:45:29.221Z,11.80
2022-08-22T01:48:00.975Z,11.70
2022-08-22T01:50:35.300Z,11.70
2022-08-22T01:53:09.773Z,11.60
2022-08-22T01:55:43.525Z,12.20
2022-08-22T01:58:19.305Z,11.40
2022-08-22T02:01:08.436Z,11.60
2022-08-22T02:03:44.358Z,11.50
2022-08-22T02:06:18.163Z,11.30
2022-08-22T02:08:55.402Z,11.50
2022-08-22T02:11:39.034Z,11.50
2022-08-22T02:14:18.528Z,11.50
2022-08-22T02:16:50.523Z,11.50
2022-08-22T02:19:29.374Z,11.30
2022-08-22T02:22:02.754Z,11.20
2022-08-22T02:24:49.136Z,11.40
2022-08-22T02:27:27.191Z,11.40
2022-08-22T02:30:06.150Z,11.80
2022-08-22T02:32:46.190Z,11.90
2022-08-22T02:35:25.456Z,11.40
2022-08-22T02:38:07.303Z,11.00
2022-08-22T02:40:42.544Z,11.10
2022-08-22T02:43:20.324Z,11.30
2022-08-22T02:45:54.302Z,11.30
2022-08-22T02:48:35.442Z,10.80
2022-08-22T02:51:11.826Z,11.20
2022-08-22T02:53:49.489Z,11.20
2022-08-22T02:56:23.256Z,11.60
2022-08-22T02:58:59.082Z,11.10
2022-08-22T03:01:43.217Z,11.10
2022-08-22T03:04:25.295Z,11.10
2022-08-22T03:07:15.957Z,11.10
2022-08-22T03:09:50.386Z,11.10
2022-08-22T03:12:28.707Z,11.00
2022-08-22T03:15:03.525Z,11.00
2022-08-22T03:17:38.517Z,11.50
2022-08-22T03:20:13.514Z,10.50
2022-08-22T03:22:49.708Z,11.20
2022-08-22T03:25:31.808Z,10.70
2022-08-22T03:28:07.250Z,11.50
2022-08-22T03:30:50.995Z,11.10
2022-08-22T03:33:32.394Z,10.90
2022-08-22T03:36:15.947Z,10.90
2022-08-22T03:39:07.288Z,10.90
2022-08-22T03:41:57.602Z,10.80
2022-08-22T03:44:51.358Z,10.90
2022-08-22T03:47:54.036Z,10.50
2022-08-22T03:50:56.429Z,10.80
2022-08-22T03:53:39.310Z,10.50
2022-08-22T03:56:44.162Z,11.40
2022-08-22T03:59:32.808Z,10.70
2022-08-22T04:02:43.837Z,10.70
2022-08-22T04:05:44.797Z,10.80
2022-08-22T04:08:45.245Z,10.70
2022-08-22T04:11:31.551Z,10.70
2022-08-22T04:14:13.612Z,10.90
2022-08-22T04:17:28.279Z,10.90
2022-08-22T04:20:31.431Z,10.80
2022-08-22T04:23:28.837Z,10.80
2022-08-22T04:26:12.137Z,11.30
2022-08-22T04:28:46.546Z,11.50
2022-08-22T04:31:23.034Z,11.70
2022-08-22T04:33:55.420Z,11.00
2022-08-22T04:36:31.670Z,11.00
2022-08-22T04:39:06.169Z,10.70
2022-08-22T04:41:48.280Z,11.30
2022-08-22T04:44:24.038Z,11.10
2022-08-22T04:46:59.440Z,11.30
2022-08-22T04:49:38.481Z,11.10
2022-08-22T04:52:18.467Z,11.90
2022-08-22T04:55:04.443Z,11.10
2022-08-22T04:57:48.346Z,11.40
2022-08-22T05:00:17.829Z,11.70
2022-08-22T05:02:51.323Z,11.80
2022-08-22T05:05:24.619Z,11.90
2022-08-22T05:07:58.678Z,11.80
2022-08-22T05:10:29.712Z,11.70
2022-08-22T05:13:02.517Z,12.30
2022-08-22T05:15:35.550Z,12.20
2022-08-22T05:18:09.461Z,12.30
2022-08-22T05:20:42.131Z,12.40
2022-08-22T05:23:18.901Z,13.00
2022-08-22T05:25:57.553Z,12.50
2022-08-22T05:28:33.966Z,12.50
2022-08-22T05:31:18.761Z,12.70
2022-08-22T05:33:55.757Z,12.40
2022-08-22T05:36:29.391Z,12.90
2022-08-22T05:39:20.767Z,13.00
2022-08-22T05:41:52.218Z,13.10
2022-08-22T05:44:27.094Z,13.40
2022-08-22T05:47:09.107Z,13.30
2022-08-22T05:49:49.824Z,13.50
2022-08-22T05:52:46.889Z,13.60
2022-08-22T05:55:31.359Z,13.70
2022-08-22T06:00:58.081Z,14.10
2022-08-22T06:03:32.128Z,14.10
2022-08-22T06:06:03.992Z,14.20
2022-08-22T06:08:36.194Z,14.30
2022-08-22T06:11:13.165Z,14.40
2022-08-22T06:13:47.354Z,14.60
2022-08-22T06:16:20.611Z,14.60
2022-08-22T06:18:51.402Z,14.80
2022-08-22T06:21:22.871Z,14.90
2022-08-22T06:23:56.763Z,15.00
2022-08-22T06:26:31.157Z,15.20
2022-08-22T06:29:01.594Z,15.20
2022-08-22T06:31:34.134Z,15.40
2022-08-22T06:34:06.285Z,15.40
2022-08-22T06:36:37.103Z,15.60
2022-08-22T06:39:12.453Z,15.60
2022-08-22T06:41:47.493Z,15.80
2022-08-22T06:44:19.283Z,15.90
2022-08-22T06:46:50.244Z,16.00
2022-08-22T06:49:18.794Z,16.20
2022-08-22T06:51:49.116Z,16.30
2022-08-22T06:54:20.358Z,16.40
2022-08-22T06:56:52.391Z,16.50
2022-08-22T06:59:25.424Z,16.60
2022-08-22T07:01:56.229Z,16.80
2022-08-22T07:04:26.747Z,16.90
2022-08-22T07:06:58.396Z,17.00
2022-08-22T07:09:30.255Z,17.10
2022-08-22T07:12:02.882Z,17.20
2022-08-22T07:14:33.661Z,17.30
2022-08-22T07:17:05.590Z,17.50
2022-08-22T07:19:36.199Z,17.60
2022-08-22T07:22:14.002Z,17.70
2022-08-22T07:24:48.060Z,17.80
2022-08-22T07:27:29.751Z,17.90
2022-08-22T07:30:34.383Z,18.00
2022-08-22T07:33:26.726Z,18.10
2022-08-22T07:36:00.491Z,18.30
2022-08-22T07:38:42.548Z,18.40
2022-08-22T07:41:15.990Z,18.60
2022-08-22T07:43:49.061Z,18.70
2022-08-22T07:46:27.159Z,18.90
2022-08-22T07:49:09.112Z,19.00
2022-08-22T07:51:45.050Z,19.10
2022-08-22T07:54:16.623Z,19.20
2022-08-22T07:56:52.877Z,19.40
2022-08-22T07:59:23.158Z,19.40
2022-08-22T08:01:54.486Z,19.50
2022-08-22T08:08:10.134Z,19.70
2022-08-22T08:10:43.834Z,19.80
2022-08-22T08:13:19.328Z,19.90
2022-08-22T08:15:50.889Z,19.90
2022-08-22T08:18:23.370Z,20.00
2022-08-22T08:20:54.616Z,20.10
2022-08-22T08:23:24.082Z,20.10
2022-08-22T08:26:01.332Z,20.10
2022-08-22T08:28:34.760Z,20.20
2022-08-22T08:31:14.752Z,20.30
2022-08-22T08:33:45.977Z,20.40
2022-08-22T08:36:41.549Z,20.50
2022-08-22T08:39:23.942Z,20.60
2022-08-22T08:42:21.929Z,20.70
2022-08-22T08:45:07.687Z,20.80
2022-08-22T08:48:07.485Z,21.00
2022-08-22T08:50:51.461Z,21.10
2022-08-22T08:53:53.073Z,21.30
2022-08-22T08:56:29.974Z,21.40
2022-08-22T08:59:10.317Z,21.30
2022-08-22T09:02:06.344Z,21.50
2022-08-22T09:05:02.983Z,21.70
2022-08-22T09:08:37.287Z,21.90
2022-08-22T09:11:32.274Z,22.20
2022-08-22T09:14:17.141Z,22.20
2022-08-22T09:17:14.926Z,22.40
2022-08-22T09:20:15.396Z,22.60
2022-08-22T09:23:20.367Z,22.60
2022-08-22T09:25:53.083Z,22.70
2022-08-22T09:28:30.807Z,22.80
2022-08-22T09:31:32.728Z,22.90
2022-08-22T09:34:12.522Z,23.10
2022-08-22T09:37:04.449Z,23.00
2022-08-22T09:39:36.281Z,23.00
2022-08-22T09:42:14.935Z,23.10
2022-08-22T09:44:56.120Z,23.20
2022-08-22T09:47:32.639Z,23.40
2022-08-22T09:50:13.688Z,23.40
2022-08-22T09:52:54.754Z,23.50
2022-08-22T09:55:40.376Z,23.70
2022-08-22T09:58:17.404Z,23.80
2022-08-22T10:00:54.973Z,24.00
2022-08-22T10:03:33.779Z,24.10
2022-08-22T10:06:05.663Z,24.10
2022-08-22T10:08:48.510Z,24.10
2022-08-22T10:11:25.859Z,24.00
2022-08-22T10:14:02.375Z,24.10
2022-08-22T10:16:58.168Z,24.10
2022-08-22T10:19:31.990Z,24.20
2022-08-22T10:22:21.462Z,24.40
2022-08-22T10:24:59.594Z,24.40
2022-08-22T10:27:43.864Z,24.50
2022-08-22T10:30:16.465Z,24.50
2022-08-22T10:32:48.269Z,24.40
2022-08-22T10:35:27.571Z,24.20
2022-08-22T10:38:00.214Z,24.40
2022-08-22T10:40:37.899Z,24.40
2022-08-22T10:43:13.120Z,24.40
2022-08-22T10:45:44.787Z,24.40
2022-08-22T10:48:33.821Z,24.20
2022-08-22T10:51:16.501Z,24.20
2022-08-22T10:53:59.438Z,24.30
2022-08-22T10:56:36.037Z,24.20
2022-08-22T10:59:12.265Z,24.40
2022-08-22T11:01:48.872Z,24.60
2022-08-22T11:04:33.895Z,24.90
2022-08-22T11:07:39.405Z,25.00
2022-08-22T11:10:19.899Z,25.20
2022-08-22T11:13:05.789Z,24.90
2022-08-22T11:16:09.416Z,25.00
2022-08-22T11:19:02.075Z,25.00
2022-08-22T11:21:45.914Z,24.90
2022-08-22T11:24:35.558Z,24.90
2022-08-22T11:27:33.541Z,24.60
2022-08-22T11:30:18.686Z,24.60
2022-08-22T11:33:21.653Z,24.50
2022-08-22T11:36:15.100Z,24.40
2022-08-22T11:38:55.109Z,24.20
2022-08-22T11:41:27.403Z,24.10
2022-08-22T11:44:03.445Z,24.10
2022-08-22T11:46:37.102Z,24.00
2022-08-22T11:49:28.154Z,24.00
2022-08-22T11:52:18.050Z,23.90
2022-08-22T11:55:12.539Z,23.90
2022-08-22T11:57:44.966Z,24.10
2022-08-22T12:00:27.267Z,24.40
2022-08-22T12:03:23.181Z,24.20
2022-08-22T12:05:56.343Z,24.30
2022-08-22T12:09:13.045Z,24.60
2022-08-22T12:11:54.555Z,24.60
2022-08-22T12:14:30.058Z,24.60
2022-08-22T12:17:09.143Z,24.70
2022-08-22T12:20:05.730Z,24.90
2022-08-22T12:22:59.186Z,24.90
2022-08-22T12:25:47.910Z,24.90
2022-08-22T12:28:32.529Z,24.90
2022-08-22T12:31:09.341Z,25.00
2022-08-22T12:33:57.345Z,25.10
2022-08-22T12:36:49.816Z,25.00
2022-08-22T12:39:35.558Z,25.00
2022-08-22T12:42:31.548Z,25.00
2022-08-22T12:45:21.902Z,25.10
2022-08-22T12:48:08.500Z,25.00
2022-08-22T12:50:44.674Z,25.10
2022-08-22T12:53:41.391Z,25.20
2022-08-22T12:56:23.060Z,25.10
2022-08-22T12:59:17.932Z,25.20
2022-08-22T13:01:51.402Z,25.20
2022-08-22T13:04:32.624Z,25.20
2022-08-22T13:07:08.524Z,25.20
2022-08-22T13:09:39.894Z,25.30
2022-08-22T13:12:22.428Z,25.50
2022-08-22T13:14:55.372Z,25.60
2022-08-22T13:17:26.278Z,25.70
2022-08-22T13:20:00.500Z,25.50
2022-08-22T13:22:31.594Z,25.60
2022-08-22T13:25:04.741Z,25.70
2022-08-22T13:27:37.644Z,25.70
2022-08-22T13:30:22.006Z,25.70
2022-08-22T13:32:54.548Z,25.70
2022-08-22T13:35:26.306Z,25.60
2022-08-22T13:37:59.563Z,25.50
2022-08-22T13:40:30.843Z,25.50
2022-08-22T13:43:18.466Z,25.40
2022-08-22T13:45:56.742Z,25.40
2022-08-22T13:48:28.804Z,25.30
2022-08-22T13:51:08.138Z,25.40
2022-08-22T13:53:46.381Z,25.40
2022-08-22T13:56:30.129Z,25.50
2022-08-22T13:59:01.387Z,25.50
2022-08-22T14:01:39.009Z,25.50
2022-08-22T14:04:34.874Z,25.30
2022-08-22T14:07:28.218Z,25.20
2022-08-22T14:09:59.713Z,25.20
2022-08-22T14:12:50.082Z,25.20
2022-08-22T14:15:24.299Z,25.20
2022-08-22T14:17:57.551Z,24.90
2022-08-22T14:20:33.446Z,25.20
2022-08-22T14:23:07.189Z,25.20
2022-08-22T14:25:38.290Z,25.20
2022-08-22T14:28:10.274Z,25.10
2022-08-22T14:30:54.626Z,25.10
2022-08-22T14:33:32.414Z,25.20
2022-08-22T14:36:14.062Z,25.30
2022-08-22T14:38:48.283Z,25.20
2022-08-22T14:41:28.494Z,25.20
2022-08-22T14:44:23.332Z,25.00
2022-08-22T14:46:55.013Z,25.00
2022-08-22T14:49:48.011Z,24.90
2022-08-22T14:52:32.378Z,24.80
2022-08-22T14:55:19.231Z,24.90
2022-08-22T14:57:52.421Z,24.80
2022-08-22T15:00:31.246Z,24.80
2022-08-22T15:03:17.086Z,24.90
2022-08-22T15:05:51.059Z,24.80
2022-08-22T15:08:28.672Z,24.80
2022-08-22T15:11:09.917Z,24.70
2022-08-22T15:13:41.315Z,24.80
2022-08-22T15:16:19.979Z,24.90
2022-08-22T15:18:51.951Z,24.90
2022-08-22T15:21:24.729Z,24.90
2022-08-22T15:23:57.357Z,24.80
2022-08-22T15:26:30.749Z,24.70
2022-08-22T15:29:07.094Z,24.70
2022-08-22T15:31:35.913Z,24.60
2022-08-22T15:34:11.949Z,24.50
2022-08-22T15:37:07.893Z,24.60
2022-08-22T15:40:00.597Z,24.70
2022-08-22T15:42:34.134Z,24.60
2022-08-22T15:45:02.764Z,24.60
2022-08-22T15:47:38.126Z,24.40
2022-08-22T15:50:09.881Z,24.20
2022-08-22T15:53:10.257Z,24.10
2022-08-22T15:56:04.794Z,24.00
2022-08-22T15:58:37.213Z,23.80
2022-08-22T16:01:18.971Z,23.70
2022-08-22T16:03:56.440Z,23.60
2022-08-22T16:06:43.186Z,23.50
2022-08-22T16:09:36.113Z,23.40
2022-08-22T16:12:09.965Z,23.30
2022-08-22T16:14:50.818Z,23.20
2022-08-22T16:17:42.746Z,23.20
2022-08-22T16:20:45.970Z,23.10
2022-08-22T16:23:14.015Z,23.10
2022-08-22T16:26:16.623Z,23.10
2022-08-22T16:28:58.304Z,23.10
2022-08-22T16:31:30.483Z,23.00
2022-08-22T16:34:20.396Z,23.00
2022-08-22T16:36:51.396Z,22.90
2022-08-22T16:39:41.830Z,22.90
2022-08-22T16:42:34.746Z,22.80
2022-08-22T16:45:19.512Z,22.80
2022-08-22T16:47:52.817Z,22.70
2022-08-22T16:50:37.767Z,22.70
2022-08-22T16:53:10.093Z,22.60
2022-08-22T16:56:11.585Z,22.60
2022-08-22T16:59:19.622Z,22.60
2022-08-22T17:02:20.459Z,22.50
2022-08-22T17:05:03.216Z,22.40
2022-08-22T17:07:43.126Z,22.30
2022-08-22T17:10:36.697Z,22.30
2022-08-22T17:13:17.542Z,22.10
2022-08-22T17:16:00.758Z,22.00
2022-08-22T17:18:46.113Z,22.00
2022-08-22T17:21:25.662Z,21.90
2022-08-22T17:24:02.864Z,21.80
2022-08-22T17:26:41.815Z,21.80
2022-08-22T17:29:16.954Z,21.70
2022-08-22T17:31:51.784Z,21.60
2022-08-22T17:34:32.304Z,21.50
2022-08-22T17:37:11.580Z,21.40
2022-08-22T17:40:03.554Z,21.30
2022-08-22T17:42:46.932Z,21.30
2022-08-22T17:45:28.105Z,21.30
2022-08-22T17:48:03.246Z,21.20
2022-08-22T17:50:45.670Z,21.20
2022-08-22T17:53:23.600Z,21.20
2022-08-22T17:56:01.425Z,21.20
2022-08-22T17:58:43.280Z,21.10
2022-08-22T18:01:16.325Z,21.00
2022-08-22T18:03:52.019Z,21.00
2022-08-22T18:06:25.822Z,20.80
2022-08-22T18:09:15.236Z,20.80
2022-08-22T18:11:49.503Z,20.80
2022-08-22T18:14:28.727Z,20.70
2022-08-22T18:16:59.238Z,20.60
2022-08-22T18:19:41.139Z,20.60
2022-08-22T18:22:19.231Z,20.60
2022-08-22T18:24:54.381Z,20.60
2022-08-22T18:27:34.742Z,20.60
2022-08-22T18:30:16.879Z,20.50
2022-08-22T18:32:56.917Z,20.50
2022-08-22T18:35:31.204Z,20.50
2022-08-22T18:38:19.555Z,20.40
2022-08-22T18:40:53.373Z,20.20
2022-08-22T18:43:26.854Z,20.10
2022-08-22T18:46:04.566Z,20.00
2022-08-22T18:49:05.484Z,20.00
2022-08-22T18:51:38.359Z,19.90
2022-08-22T18:54:33.040Z,19.70
2022-08-22T18:57:08.847Z,19.70
2022-08-22T19:00:01.694Z,19.60
2022-08-22T19:02:58.622Z,19.50
2022-08-22T19:05:52.639Z,19.50
2022-08-22T19:08:56.566Z,19.50
2022-08-22T19:11:42.236Z,19.40
2022-08-22T19:14:43.175Z,19.40
2022-08-22T19:17:30.815Z,19.20
2022-08-22T19:20:24.998Z,19.10
2022-08-22T19:22:54.850Z,19.00
2022-08-22T19:25:27.073Z,19.00
2022-08-22T19:28:26.780Z,18.90
2022-08-22T19:31:22.721Z,18.80
2022-08-22T19:34:11.997Z,18.70
2022-08-22T19:36:40.328Z,18.70
2022-08-22T19:39:09.727Z,18.60
2022-08-22T19:41:45.349Z,18.50
2022-08-22T19:44:34.499Z,18.50
2022-08-22T19:47:26.868Z,18.50
2022-08-22T19:50:02.102Z,18.40
2022-08-22T19:52:52.701Z,18.40
2022-08-22T19:55:29.368Z,18.30
2022-08-22T19:58:06.224Z,18.30
2022-08-22T20:00:53.701Z,18.30
2022-08-22T20:03:32.979Z,18.20
2022-08-22T20:06:22.089Z,18.20
2022-08-22T20:09:14.332Z,18.10
2022-08-22T20:11:49.261Z,18.10
2022-08-22T20:14:30.561Z,18.00
2022-08-22T20:17:03.973Z,18.00
2022-08-22T20:19:42.662Z,17.90
2022-08-22T20:22:15.959Z,17.80
2022-08-22T20:24:49.123Z,17.80
2022-08-22T20:27:21.985Z,17.80
2022-08-22T20:29:55.842Z,17.80
2022-08-22T20:32:26.842Z,17.70
2022-08-22T20:34:58.716Z,17.60
2022-08-22T20:38:05.672Z,17.60
2022-08-22T20:40:54.981Z,17.60
2022-08-22T20:43:20.082Z,17.50
2022-08-22T20:46:00.538Z,17.40
2022-08-22T20:48:37.670Z,17.40
2022-08-22T20:51:06.909Z,17.40
2022-08-22T20:53:36.041Z,17.30
2022-08-22T20:56:07.073Z,17.40
2022-08-22T20:58:38.526Z,17.30
2022-08-22T21:01:08.223Z,17.30
2022-08-22T21:03:43.429Z,17.30
2022-08-22T21:06:14.411Z,17.20
2022-08-22T21:08:44.224Z,17.20
2022-08-22T21:11:40.744Z,17.10
2022-08-22T21:14:23.551Z,17.10
2022-08-22T21:16:51.931Z,17.10
2022-08-22T21:19:28.140Z,17.00
2022-08-22T21:22:12.160Z,16.90
2022-08-22T21:24:40.247Z,16.90
2022-08-22T21:27:08.711Z,16.90
2022-08-22T21:29:45.003Z,16.90
2022-08-22T21:32:24.586Z,16.80
2022-08-22T21:34:54.765Z,16.80
2022-08-22T21:37:28.717Z,16.80
2022-08-22T21:40:03.946Z,16.70
2022-08-22T21:42:35.605Z,16.70
2022-08-22T21:45:08.770Z,16.70
2022-08-22T21:47:40.030Z,16.70
2022-08-22T21:50:25.480Z,16.70
2022-08-22T21:53:06.677Z,16.60
2022-08-22T21:55:42.831Z,16.60
2022-08-22T21:58:36.773Z,16.60
2022-08-22T22:01:28.389Z,16.60
2022-08-22T22:03:57.753Z,16.60
2022-08-22T22:06:28.544Z,16.60
2022-08-22T22:08:56.458Z,16.60
2022-08-22T22:11:24.597Z,16.50
2022-08-22T22:13:52.810Z,16.50
2022-08-22T22:16:26.301Z,16.50
2022-08-22T22:18:54.736Z,16.40
2022-08-22T22:21:22.725Z,16.50
2022-08-22T22:23:52.601Z,16.40
2022-08-22T22:26:21.490Z,16.40
2022-08-22T22:28:50.215Z,16.40
2022-08-22T22:31:19.369Z,16.40
2022-08-22T22:33:47.389Z,16.40
2022-08-22T22:36:19.466Z,16.30
2022-08-22T22:38:48.488Z,16.30
2022-08-22T22:41:25.436Z,16.30
2022-08-22T22:43:54.069Z,16.30
2022-08-22T22:46:22.534Z,16.30
2022-08-22T22:48:50.622Z,16.30
2022-08-22T22:51:20.932Z,16.30
2022-08-22T22:53:49.718Z,16.30
2022-08-22T22:56:22.298Z,16.30
2022-08-22T22:59:00.859Z,16.30
2022-08-22T23:01:39.375Z,16.30
2022-08-22T23:04:09.103Z,16.30
2022-08-22T23:06:37.126Z,16.30
2022-08-22T23:09:05.484Z,16.30
2022-08-22T23:11:35.791Z,16.30
2022-08-22T23:14:03.828Z,16.30
2022-08-22T23:16:37.121Z,16.30
2022-08-22T23:19:09.538Z,16.30
2022-08-22T23:21:37.575Z,16.20
2022-08-22T23:24:06.147Z,16.20
2022-08-22T23:26:36.124Z,16.20
2022-08-22T23:29:06.309Z,16.20
2022-08-22T23:31:36.119Z,16.20
2022-08-22T23:34:10.246Z,16.10
2022-08-22T23:36:40.319Z,16.10
2022-08-22T23:39:09.526Z,16.20
2022-08-22T23:41:39.528Z,16.20
2022-08-22T23:44:09.787Z,16.10
2022-08-22T23:46:43.127Z,16.10
2022-08-22T23:49:11.364Z,16.10
2022-08-22T23:51:39.828Z,16.10
2022-08-22T23:54:08.081Z,16.10
2022-08-22T23:56:39.773Z,16.10
2022-08-22T23:59:10.155Z,16.10
